createdAt,value
2023-01-12T00:02:00.625Z,30.80
2023-01-12T00:04:30.624Z,30.73
2023-01-12T00:06:58.468Z,30.50
2023-01-12T00:09:26.096Z,28.87
2023-01-12T00:11:53.677Z,28.80
2023-01-12T00:14:21.248Z,26.63
2023-01-12T00:16:50.175Z,26.60
2023-01-12T00:19:19.585Z,26.50
2023-01-12T00:21:58.229Z,26.47
2023-01-12T00:24:27.294Z,25.80
2023-01-12T00:26:55.898Z,25.60
2023-01-12T00:29:24.454Z,25.60
2023-01-12T00:31:54.537Z,26.20
2023-01-12T00:34:22.985Z,26.27
2023-01-12T00:36:50.994Z,26.57
2023-01-12T00:39:18.772Z,26.90
2023-01-12T00:42:04.048Z,26.57
2023-01-12T00:44:49.370Z,26.60
2023-01-12T00:47:19.442Z,27.03
2023-01-12T00:49:47.515Z,27.40
2023-01-12T00:52:29.452Z,27.57
2023-01-12T00:54:58.666Z,28.00
2023-01-12T00:57:26.757Z,27.73
2023-01-12T00:59:55.206Z,28.67
2023-01-12T01:02:24.862Z,27.90
2023-01-12T01:04:52.464Z,28.00
2023-01-12T01:07:21.502Z,28.80
2023-01-12T01:09:49.306Z,27.17
2023-01-12T01:12:17.246Z,27.90
2023-01-12T01:14:44.884Z,29.00
2023-01-12T01:17:12.505Z,29.37
2023-01-12T01:19:43.303Z,28.93
2023-01-12T01:22:12.419Z,29.70
2023-01-12T01:24:40.057Z,29.83
2023-01-12T01:27:08.760Z,30.87
2023-01-12T01:29:36.426Z,30.90
2023-01-12T01:32:04.204Z,30.07
2023-01-12T01:34:31.878Z,30.30
2023-01-12T01:37:01.429Z,31.00
2023-01-12T01:39:29.020Z,30.20
2023-01-12T01:41:56.750Z,30.60
2023-01-12T01:44:50.635Z,31.33
2023-01-12T01:47:26.402Z,32.30
2023-01-12T01:49:56.460Z,32.23
2023-01-12T01:52:31.575Z,32.00
2023-01-12T01:55:02.851Z,32.80
2023-01-12T01:57:35.505Z,31.90
2023-01-12T02:00:06.997Z,31.70
2023-01-12T02:02:36.296Z,31.30
2023-01-12T02:05:04.647Z,31.50
2023-01-12T02:07:33.862Z,32.90
2023-01-12T02:10:01.846Z,31.83
2023-01-12T02:12:47.272Z,31.97
2023-01-12T02:15:33.086Z,32.93
2023-01-12T02:18:15.694Z,33.03
2023-01-12T02:20:50.458Z,32.53
2023-01-12T02:23:49.587Z,33.90
2023-01-12T02:27:03.322Z,32.00
2023-01-12T02:30:15.580Z,32.87
2023-01-12T02:32:56.316Z,30.90
2023-01-12T02:35:32.293Z,31.33
2023-01-12T02:38:08.919Z,31.10
2023-01-12T02:40:45.435Z,31.67
2023-01-12T02:43:17.823Z,32.40
2023-01-12T02:45:53.106Z,33.07
2023-01-12T02:48:28.394Z,30.83
2023-01-12T02:51:00.903Z,31.83
2023-01-12T02:53:33.359Z,34.17
2023-01-12T02:56:04.866Z,33.80
2023-01-12T02:58:37.451Z,33.73
2023-01-12T03:01:06.651Z,32.10
2023-01-12T03:03:39.601Z,30.57
2023-01-12T03:06:08.813Z,31.57
2023-01-12T03:08:40.233Z,31.07
2023-01-12T03:11:14.075Z,32.97
2023-01-12T03:13:47.015Z,30.60
2023-01-12T03:16:18.710Z,31.23
2023-01-12T03:18:52.167Z,30.00
2023-01-12T03:21:26.215Z,30.40
2023-01-12T03:24:01.254Z,28.63
2023-01-12T03:26:31.599Z,30.37
2023-01-12T03:29:06.284Z,29.33
2023-01-12T03:31:34.371Z,30.17
2023-01-12T03:34:04.425Z,29.83
2023-01-12T03:36:46.085Z,30.03
2023-01-12T03:39:21.155Z,29.87
2023-01-12T03:41:57.413Z,29.60
2023-01-12T03:44:35.478Z,29.50
2023-01-12T03:47:11.057Z,28.90
2023-01-12T03:49:46.719Z,29.23
2023-01-12T03:52:15.164Z,29.77
2023-01-12T03:54:45.015Z,29.97
2023-01-12T03:57:13.912Z,29.80
2023-01-12T03:59:42.515Z,30.90
2023-01-12T04:02:10.091Z,30.40
2023-01-12T04:04:37.735Z,30.30
2023-01-12T04:07:06.716Z,30.83
2023-01-12T04:09:34.363Z,31.70
2023-01-12T04:12:11.135Z,31.70
2023-01-12T04:14:39.289Z,32.13
2023-01-12T04:17:07.269Z,31.67
2023-01-12T04:19:34.852Z,30.83
2023-01-12T04:22:20.187Z,32.17
2023-01-12T04:24:49.412Z,32.30
2023-01-12T04:27:17.336Z,31.17
2023-01-12T04:29:45.560Z,31.40
2023-01-12T04:32:13.255Z,31.67
2023-01-12T04:34:40.846Z,31.00
2023-01-12T04:37:08.475Z,31.13
2023-01-12T04:39:36.076Z,31.47
2023-01-12T04:42:05.586Z,31.90
2023-01-12T04:44:34.927Z,32.03
2023-01-12T04:47:02.516Z,31.90
2023-01-12T04:49:30.069Z,34.13
2023-01-12T04:51:57.659Z,33.20
2023-01-12T04:54:25.590Z,34.00
2023-01-12T04:56:53.142Z,31.80
2023-01-12T04:59:22.130Z,31.93
2023-01-12T05:01:49.722Z,33.67
2023-01-12T05:04:17.737Z,32.57
2023-01-12T05:06:45.338Z,33.10
2023-01-12T05:09:30.498Z,33.77
2023-01-12T05:12:00.841Z,32.60
2023-01-12T05:14:30.159Z,33.13
2023-01-12T05:16:59.455Z,32.03
2023-01-12T05:19:27.081Z,32.87
2023-01-12T05:21:54.721Z,33.90
2023-01-12T05:24:22.332Z,32.40
2023-01-12T05:26:49.887Z,33.27
2023-01-12T05:29:17.432Z,32.90
2023-01-12T05:31:46.609Z,33.70
2023-01-12T05:34:14.278Z,33.30
2023-01-12T05:36:42.191Z,32.50
2023-01-12T05:39:09.770Z,34.37
2023-01-12T05:41:37.355Z,33.83
2023-01-12T05:44:03.984Z,34.23
2023-01-12T05:46:33.245Z,33.63
2023-01-12T05:49:02.159Z,32.40
2023-01-12T05:51:30.901Z,32.60
2023-01-12T05:53:58.513Z,33.17
2023-01-12T05:56:28.351Z,32.10
2023-01-12T05:58:58.356Z,33.40
2023-01-12T06:01:27.165Z,32.37
2023-01-12T06:03:56.978Z,33.40
2023-01-12T06:06:27.787Z,32.70
2023-01-12T06:08:55.711Z,33.23
2023-01-12T06:11:40.959Z,34.93
2023-01-12T06:14:10.136Z,32.50
2023-01-12T06:16:39.090Z,34.17
2023-01-12T06:19:07.027Z,34.17
2023-01-12T06:21:36.329Z,31.93
2023-01-12T06:24:04.065Z,33.50
2023-01-12T06:26:31.676Z,33.13
2023-01-12T06:28:59.250Z,34.50
2023-01-12T06:31:26.884Z,34.10
2023-01-12T06:33:54.417Z,34.77
2023-01-12T06:36:21.977Z,33.63
2023-01-12T06:38:50.934Z,33.50
2023-01-12T06:41:35.931Z,33.13
2023-01-12T06:44:03.520Z,32.77
2023-01-12T06:46:31.575Z,33.17
2023-01-12T06:48:59.955Z,32.90
2023-01-12T06:51:27.720Z,33.73
2023-01-12T06:53:56.661Z,32.17
2023-01-12T06:56:24.438Z,32.43
2023-01-12T06:58:52.055Z,30.60
2023-01-12T07:01:19.850Z,34.13
2023-01-12T07:03:47.473Z,31.97
2023-01-12T07:06:15.150Z,32.60
2023-01-12T07:08:43.322Z,32.60
2023-01-12T07:11:14.991Z,33.47
2023-01-12T07:13:42.568Z,33.37
2023-01-12T07:16:10.279Z,32.97
2023-01-12T07:18:37.915Z,34.10
2023-01-12T07:21:06.652Z,33.90
2023-01-12T07:23:34.837Z,33.07
2023-01-12T07:26:02.459Z,33.50
2023-01-12T07:28:33.646Z,33.60
2023-01-12T07:31:02.442Z,33.60
2023-01-12T07:33:30.154Z,33.73
2023-01-12T07:35:58.860Z,32.60
2023-01-12T07:38:26.653Z,34.33
2023-01-12T07:40:54.496Z,33.77
2023-01-12T07:43:22.088Z,34.90
2023-01-12T07:45:50.998Z,33.50
2023-01-12T07:48:18.579Z,34.70
2023-01-12T07:50:46.145Z,33.17
2023-01-12T07:53:13.760Z,35.70
2023-01-12T07:55:43.664Z,34.47
2023-01-12T07:58:11.493Z,34.97
2023-01-12T08:00:39.138Z,33.00
2023-01-12T08:03:10.431Z,35.20
2023-01-12T08:05:39.865Z,33.93
2023-01-12T08:08:08.321Z,32.67
2023-01-12T08:10:36.081Z,34.17
2023-01-12T08:13:03.707Z,32.97
2023-01-12T08:15:36.769Z,33.30
2023-01-12T08:18:11.085Z,32.70
2023-01-12T08:20:38.845Z,32.37
2023-01-12T08:23:11.056Z,32.80
2023-01-12T08:25:44.541Z,33.27
2023-01-12T08:28:18.355Z,32.30
2023-01-12T08:30:48.606Z,30.77
2023-01-12T08:33:17.869Z,30.90
2023-01-12T08:35:47.045Z,32.20
2023-01-12T08:38:14.777Z,31.70
2023-01-12T08:41:00.089Z,31.60
2023-01-12T08:43:45.173Z,31.27
2023-01-12T08:46:13.016Z,29.80
2023-01-12T08:48:41.987Z,31.00
2023-01-12T08:51:10.026Z,29.40
2023-01-12T08:53:37.601Z,29.53
2023-01-12T08:56:06.388Z,29.87
2023-01-12T08:58:33.959Z,29.27
2023-01-12T09:01:08.626Z,29.80
2023-01-12T09:03:36.251Z,30.40
2023-01-12T09:06:12.419Z,28.20
2023-01-12T09:08:40.001Z,28.20
2023-01-12T09:11:08.471Z,28.90
2023-01-12T09:13:36.546Z,27.93
2023-01-12T09:16:12.735Z,28.10
2023-01-12T09:18:41.522Z,28.63
2023-01-12T09:21:12.080Z,28.13
2023-01-12T09:23:40.247Z,27.33
2023-01-12T09:26:09.786Z,27.50
2023-01-12T09:28:38.268Z,27.70
2023-01-12T09:31:07.930Z,26.83
2023-01-12T09:33:36.511Z,26.23
2023-01-12T09:36:06.467Z,27.37
2023-01-12T09:38:36.188Z,26.70
2023-01-12T09:41:10.749Z,28.00
2023-01-12T09:43:56.503Z,27.20
2023-01-12T09:46:47.768Z,26.60
2023-01-12T09:49:17.396Z,26.87
2023-01-12T09:51:53.369Z,26.90
2023-01-12T09:54:22.469Z,27.47
2023-01-12T09:56:58.033Z,27.60
2023-01-12T09:59:44.783Z,26.63
2023-01-12T10:02:14.234Z,26.87
2023-01-12T10:04:42.001Z,27.30
2023-01-12T10:07:15.405Z,26.97
2023-01-12T10:09:44.666Z,26.27
2023-01-12T10:12:21.327Z,26.80
2023-01-12T10:15:05.649Z,27.13
2023-01-12T10:17:50.550Z,27.17
2023-01-12T10:20:28.109Z,27.03
2023-01-12T10:22:59.386Z,27.03
2023-01-12T10:25:35.834Z,26.83
2023-01-12T10:28:09.059Z,28.20
2023-01-12T10:30:39.216Z,28.50
2023-01-12T10:33:15.416Z,28.83
2023-01-12T10:35:52.320Z,28.50
2023-01-12T10:38:23.863Z,28.50
2023-01-12T10:41:07.485Z,29.73
2023-01-12T10:43:35.373Z,28.30
2023-01-12T10:46:11.657Z,28.90
2023-01-12T10:48:42.687Z,29.30
2023-01-12T10:51:21.731Z,28.80
2023-01-12T10:53:52.482Z,28.30
2023-01-12T10:56:27.492Z,27.70
2023-01-12T10:58:59.088Z,28.60
2023-01-12T11:01:26.908Z,29.00
2023-01-12T11:04:05.439Z,31.00
2023-01-12T11:06:33.102Z,31.90
2023-01-12T11:09:18.682Z,31.67
2023-01-12T11:11:47.653Z,32.80
2023-01-12T11:14:25.113Z,34.03
2023-01-12T11:16:52.852Z,32.50
2023-01-12T11:19:26.666Z,32.77
2023-01-12T11:22:01.251Z,33.43
2023-01-12T11:24:37.275Z,33.23
2023-01-12T11:27:15.768Z,34.07
2023-01-12T11:29:54.336Z,35.60
2023-01-12T11:32:32.530Z,35.83
2023-01-12T11:35:05.590Z,36.10
2023-01-12T11:37:38.222Z,35.10
2023-01-12T11:40:16.626Z,36.37
2023-01-12T11:43:04.956Z,36.80
2023-01-12T11:45:43.257Z,37.23
2023-01-12T11:48:21.164Z,36.90
2023-01-12T11:50:50.933Z,37.17
2023-01-12T11:53:22.476Z,36.40
2023-01-12T11:56:01.843Z,36.30
2023-01-12T11:58:39.228Z,35.40
2023-01-12T12:01:16.104Z,34.07
2023-01-12T12:03:55.501Z,33.53
2023-01-12T12:06:50.065Z,35.10
2023-01-12T12:09:41.941Z,36.80
2023-01-12T12:12:17.912Z,33.50
2023-01-12T12:14:59.406Z,34.47
2023-01-12T12:17:41.900Z,33.63
2023-01-12T12:20:19.123Z,36.40
2023-01-12T12:23:15.227Z,35.20
2023-01-12T12:25:57.549Z,35.93
2023-01-12T12:28:48.288Z,34.87
2023-01-12T12:31:38.692Z,34.30
2023-01-12T12:34:28.705Z,33.30
2023-01-12T12:37:06.311Z,36.47
2023-01-12T12:39:48.993Z,33.50
2023-01-12T12:42:58.083Z,33.13
2023-01-12T12:45:38.315Z,31.67
2023-01-12T12:48:14.441Z,31.73
2023-01-12T12:50:48.106Z,30.87
2023-01-12T12:53:21.272Z,30.60
2023-01-12T12:55:51.549Z,30.93
2023-01-12T12:58:46.840Z,32.07
2023-01-12T13:01:56.963Z,30.57
2023-01-12T13:05:05.329Z,31.30
2023-01-12T13:07:36.990Z,29.87
2023-01-12T13:10:20.562Z,29.87
2023-01-12T13:12:58.033Z,29.27
2023-01-12T13:15:36.005Z,29.97
2023-01-12T13:18:05.964Z,30.27
2023-01-12T13:20:55.642Z,30.27
2023-01-12T13:24:22.092Z,29.83
2023-01-12T13:26:52.368Z,29.70
2023-01-12T13:29:40.670Z,28.73
2023-01-12T13:32:43.608Z,29.43
2023-01-12T13:35:40.561Z,29.13
2023-01-12T13:38:17.008Z,28.30
2023-01-12T13:40:55.592Z,29.00
2023-01-12T13:43:27.446Z,29.23
2023-01-12T13:45:58.818Z,28.70
2023-01-12T13:48:28.667Z,28.10
2023-01-12T13:50:59.891Z,27.87
2023-01-12T13:53:31.863Z,27.50
2023-01-12T13:56:01.044Z,28.13
2023-01-12T13:58:30.084Z,27.67
2023-01-12T14:01:00.171Z,28.60
2023-01-12T14:03:42.661Z,27.63
2023-01-12T14:06:24.206Z,27.60
2023-01-12T14:09:03.607Z,28.43
2023-01-12T14:12:09.523Z,28.00
2023-01-12T14:15:12.543Z,29.23
2023-01-12T14:17:57.450Z,28.70
2023-01-12T14:20:26.999Z,29.13
2023-01-12T14:23:13.720Z,29.83
2023-01-12T14:25:43.680Z,28.90
2023-01-12T14:28:19.584Z,29.60
2023-01-12T14:30:50.192Z,29.67
2023-01-12T14:33:20.344Z,30.20
2023-01-12T14:35:50.092Z,28.90
2023-01-12T14:38:20.267Z,28.47
2023-01-12T14:41:00.635Z,28.87
2023-01-12T14:43:49.752Z,28.13
2023-01-12T14:46:28.042Z,27.80
2023-01-12T14:48:57.965Z,28.10
2023-01-12T14:51:28.092Z,28.13
2023-01-12T14:53:58.796Z,28.63
2023-01-12T14:56:30.925Z,27.00
2023-01-12T14:59:13.720Z,26.50
2023-01-12T15:01:42.514Z,27.00
2023-01-12T15:04:17.718Z,28.10
2023-01-12T15:06:46.577Z,27.57
2023-01-12T15:09:27.672Z,27.50
2023-01-12T15:11:56.641Z,27.50
2023-01-12T15:14:26.587Z,28.13
2023-01-12T15:17:12.732Z,28.50
2023-01-12T15:19:58.298Z,28.60
2023-01-12T15:22:45.466Z,27.13
2023-01-12T15:25:32.275Z,28.07
2023-01-12T15:28:01.465Z,30.20
2023-01-12T15:30:29.505Z,30.13
2023-01-12T15:32:57.562Z,29.00
2023-01-12T15:35:27.636Z,29.63
2023-01-12T15:37:57.236Z,29.30
2023-01-12T15:40:25.694Z,29.20
2023-01-12T15:42:54.033Z,29.27
2023-01-12T15:45:30.846Z,29.20
2023-01-12T15:47:58.505Z,28.83
2023-01-12T15:50:26.111Z,29.67
2023-01-12T15:52:53.993Z,29.00
2023-01-12T15:55:23.468Z,31.77
2023-01-12T15:57:52.218Z,30.43
2023-01-12T16:00:22.775Z,28.20
2023-01-12T16:02:53.294Z,27.93
2023-01-12T16:05:23.061Z,29.27
2023-01-12T16:07:50.922Z,28.17
2023-01-12T16:10:18.848Z,28.07
2023-01-12T16:12:47.831Z,28.73
2023-01-12T16:15:18.124Z,27.33
2023-01-12T16:17:45.814Z,27.83
2023-01-12T16:20:17.409Z,27.43
2023-01-12T16:22:46.582Z,27.67
2023-01-12T16:25:15.459Z,28.07
2023-01-12T16:27:43.362Z,27.13
2023-01-12T16:30:14.890Z,27.50
2023-01-12T16:32:46.339Z,28.00
2023-01-12T16:35:16.431Z,28.73
2023-01-12T16:37:44.590Z,28.00
2023-01-12T16:40:13.547Z,27.83
2023-01-12T16:42:41.141Z,28.87
2023-01-12T16:45:09.851Z,28.40
2023-01-12T16:47:37.441Z,29.47
2023-01-12T16:50:05.586Z,28.60
2023-01-12T16:52:34.518Z,30.03
2023-01-12T16:55:02.067Z,29.33
2023-01-12T16:57:29.667Z,29.80
2023-01-12T16:59:57.214Z,29.70
2023-01-12T17:02:24.987Z,30.30
2023-01-12T17:04:53.381Z,29.23
2023-01-12T17:07:21.220Z,29.03
2023-01-12T17:09:50.300Z,29.13
2023-01-12T17:12:18.425Z,29.20
2023-01-12T17:14:46.282Z,30.00
2023-01-12T17:17:14.074Z,29.50
2023-01-12T17:19:43.477Z,29.50
2023-01-12T17:22:12.179Z,30.60
2023-01-12T17:24:41.062Z,30.73
2023-01-12T17:27:11.519Z,30.20
2023-01-12T17:29:39.421Z,30.60
2023-01-12T17:32:08.357Z,29.53
2023-01-12T17:34:37.766Z,29.27
2023-01-12T17:37:08.272Z,29.13
2023-01-12T17:39:36.446Z,28.50
2023-01-12T17:42:22.419Z,28.60
2023-01-12T17:44:51.438Z,29.30
2023-01-12T17:47:19.153Z,29.23
2023-01-12T17:49:47.750Z,29.77
2023-01-12T17:52:15.522Z,29.73
2023-01-12T17:54:43.159Z,30.73
2023-01-12T17:57:11.095Z,31.77
2023-01-12T17:59:39.088Z,30.13
2023-01-12T18:02:08.323Z,30.37
2023-01-12T18:04:35.990Z,30.00
2023-01-12T18:07:03.657Z,30.30
2023-01-12T18:09:31.360Z,30.83
2023-01-12T18:12:00.216Z,29.90
2023-01-12T18:14:28.010Z,30.43
2023-01-12T18:16:55.567Z,31.60
2023-01-12T18:19:24.573Z,31.67
2023-01-12T18:21:52.138Z,32.50
2023-01-12T18:24:19.929Z,32.50
2023-01-12T18:26:48.118Z,31.77
2023-01-12T18:29:15.707Z,33.40
2023-01-12T18:31:43.459Z,32.03
2023-01-12T18:34:11.516Z,33.23
2023-01-12T18:36:42.268Z,33.53
2023-01-12T18:39:14.238Z,32.63
2023-01-12T18:41:59.217Z,33.90
2023-01-12T18:44:27.151Z,34.00
2023-01-12T18:47:12.742Z,34.83
2023-01-12T18:49:40.674Z,34.70
2023-01-12T18:52:29.749Z,36.43
2023-01-12T18:54:58.674Z,37.70
2023-01-12T18:57:28.747Z,37.27
2023-01-12T19:00:00.153Z,38.33
2023-01-12T19:02:28.827Z,37.00
2023-01-12T19:05:18.900Z,37.23
2023-01-12T19:08:24.399Z,37.93
2023-01-12T19:10:52.219Z,37.80
2023-01-12T19:13:37.260Z,37.47
2023-01-12T19:16:23.256Z,37.70
2023-01-12T19:18:50.940Z,38.63
2023-01-12T19:21:36.115Z,37.70
2023-01-12T19:24:23.153Z,36.17
2023-01-12T19:27:10.633Z,38.00
2023-01-12T19:29:40.533Z,36.07
2023-01-12T19:32:09.029Z,38.23
2023-01-12T19:34:36.592Z,37.80
2023-01-12T19:37:04.967Z,37.23
2023-01-12T19:39:59.695Z,37.63
2023-01-12T19:42:45.492Z,37.17
2023-01-12T19:45:13.329Z,36.97
2023-01-12T19:47:41.295Z,38.10
2023-01-12T19:50:10.943Z,37.40
2023-01-12T19:52:39.512Z,35.20
2023-01-12T19:55:12.110Z,33.60
2023-01-12T19:57:40.246Z,35.40
2023-01-12T20:00:12.883Z,34.23
2023-01-12T20:02:41.098Z,31.40
2023-01-12T20:05:13.176Z,30.83
2023-01-12T20:07:41.345Z,31.13
2023-01-12T20:10:11.442Z,30.17
2023-01-12T20:12:39.098Z,28.60
2023-01-12T20:15:07.583Z,27.60
2023-01-12T20:17:36.172Z,27.83
2023-01-12T20:20:08.070Z,27.80
2023-01-12T20:22:36.110Z,28.97
2023-01-12T20:25:03.760Z,27.93
2023-01-12T20:27:33.661Z,28.30
2023-01-12T20:30:01.756Z,28.77
2023-01-12T20:32:31.686Z,27.17
2023-01-12T20:35:00.122Z,27.73
2023-01-12T20:37:27.811Z,27.13
2023-01-12T20:39:57.502Z,26.07
2023-01-12T20:42:25.364Z,25.97
2023-01-12T20:44:54.372Z,25.43
2023-01-12T20:47:22.027Z,25.23
2023-01-12T20:49:49.636Z,25.80
2023-01-12T20:52:17.233Z,24.03
2023-01-12T20:54:45.012Z,24.20
2023-01-12T20:57:12.951Z,24.50
2023-01-12T20:59:41.040Z,24.57
2023-01-12T21:02:11.559Z,24.47
2023-01-12T21:04:39.104Z,25.00
2023-01-12T21:07:06.768Z,25.80
2023-01-12T21:09:34.447Z,24.80
2023-01-12T21:12:02.112Z,24.53
2023-01-12T21:14:30.022Z,24.83
2023-01-12T21:16:57.595Z,25.40
2023-01-12T21:19:26.623Z,24.87
2023-01-12T21:21:54.191Z,24.60
2023-01-12T21:24:21.791Z,25.00
2023-01-12T21:26:49.367Z,26.50
2023-01-12T21:29:17.057Z,26.67
2023-01-12T21:31:44.677Z,28.50
2023-01-12T21:34:12.299Z,30.57
2023-01-12T21:36:41.242Z,31.13
2023-01-12T21:39:09.166Z,34.40
2023-01-12T21:41:56.825Z,34.73
2023-01-12T21:44:23.425Z,35.43
2023-01-12T21:46:50.988Z,36.63
2023-01-12T21:49:18.927Z,34.93
2023-01-12T21:51:47.881Z,36.30
2023-01-12T21:54:15.497Z,35.50
2023-01-12T21:56:43.084Z,36.00
2023-01-12T21:59:11.707Z,37.63
2023-01-12T22:01:39.871Z,35.17
2023-01-12T22:04:07.586Z,36.27
2023-01-12T22:06:35.241Z,38.37
2023-01-12T22:09:04.393Z,36.20
2023-01-12T22:11:31.991Z,36.00
2023-01-12T22:13:59.556Z,38.30
2023-01-12T22:16:27.203Z,38.27
2023-01-12T22:18:54.872Z,37.50
2023-01-12T22:21:23.654Z,38.20
2023-01-12T22:23:51.279Z,40.37
2023-01-12T22:26:20.946Z,38.00
2023-01-12T22:28:50.208Z,37.10
2023-01-12T22:31:20.404Z,38.33
2023-01-12T22:33:48.898Z,36.20
2023-01-12T22:36:16.583Z,35.67
2023-01-12T22:38:44.170Z,35.53
2023-01-12T22:41:13.533Z,35.07
2023-01-12T22:43:42.452Z,35.30
2023-01-12T22:46:14.570Z,35.40
2023-01-12T22:48:42.316Z,35.17
2023-01-12T22:51:10.024Z,34.67
2023-01-12T22:53:37.579Z,32.00
2023-01-12T22:56:06.220Z,35.07
2023-01-12T22:58:34.548Z,34.63
2023-01-12T23:01:08.371Z,33.87
2023-01-12T23:03:37.024Z,34.60
2023-01-12T23:06:06.264Z,32.73
2023-01-12T23:08:34.078Z,33.00
2023-01-12T23:11:05.896Z,34.33
2023-01-12T23:13:33.893Z,33.60
2023-01-12T23:16:04.315Z,32.50
2023-01-12T23:18:34.623Z,31.50
2023-01-12T23:21:04.280Z,31.17
2023-01-12T23:23:32.867Z,32.37
2023-01-12T23:26:03.877Z,30.93
2023-01-12T23:28:35.566Z,30.70
2023-01-12T23:31:04.964Z,31.40
2023-01-12T23:33:34.202Z,31.43
2023-01-12T23:36:06.550Z,31.83
2023-01-12T23:38:34.422Z,31.33
2023-01-12T23:41:10.623Z,30.73
2023-01-12T23:43:38.529Z,31.47
2023-01-12T23:46:06.842Z,31.30
2023-01-12T23:48:35.995Z,31.07
2023-01-12T23:51:03.860Z,31.73
2023-01-12T23:53:32.120Z,31.10
2023-01-12T23:56:05.570Z,30.93
2023-01-12T23:58:33.738Z,31.80
